Time;durP1;ratioP1;P1;durP2;ratioP2;P2;SDS_P1;SDS_P2;PMS_P1;PMS_P2;Temp;Humidity;BMP_temperature;BMP_pressure;BME280_temperature;BME280_humidity;BME280_pressure;Samples;Min_cycle;Max_cycle;Signal;HPM_P1;HPM_P2
2023/01/08 00:01:43;;;;;;;2.40;1.83;;;11.80;99.90;;;;;;5056119;28;20083;-87
2023/01/08 00:04:09;;;;;;;2.33;1.90;;;11.70;99.90;;;;;;5056064;28;20029;-87
2023/01/08 00:06:35;;;;;;;2.55;1.98;;;11.70;99.90;;;;;;5056035;28;20025;-86
2023/01/08 00:09:02;;;;;;;3.22;1.95;;;11.60;99.90;;;;;;5055689;28;20489;-87
2023/01/08 00:11:27;;;;;;;2.80;2.20;;;11.60;99.90;;;;;;5037938;28;20557;-87
2023/01/08 00:13:53;;;;;;;3.67;2.30;;;11.60;99.90;;;;;;5055805;28;20120;-87
2023/01/08 00:16:19;;;;;;;2.28;2.08;;;11.60;99.90;;;;;;5055754;28;20131;-86
2023/01/08 00:18:46;;;;;;;2.60;1.70;;;11.50;99.90;;;;;;5055776;28;20113;-87
2023/01/08 00:21:12;;;;;;;5.40;2.30;;;11.60;99.90;;;;;;5037950;28;20064;-87
2023/01/08 00:23:38;;;;;;;3.08;2.40;;;11.80;99.90;;;;;;5055324;28;20025;-87
2023/01/08 00:26:06;;;;;;;3.28;2.15;;;11.70;99.90;;;;;;5055723;28;20379;-87
2023/01/08 00:28:33;;;;;;;3.70;2.10;;;11.70;99.90;;;;;;5055636;28;20025;-87
2023/01/08 00:31:01;;;;;;;2.83;2.00;;;11.60;99.90;;;;;;5055482;28;20039;-87
2023/01/08 00:33:27;;;;;;;2.50;1.92;;;11.60;99.90;;;;;;5055310;28;20045;-87
2023/01/08 00:35:52;;;;;;;3.17;1.70;;;11.60;99.90;;;;;;5055380;28;20017;-87
2023/01/08 00:38:18;;;;;;;3.50;2.10;;;11.60;99.90;;;;;;5055103;28;20401;-87
2023/01/08 00:40:44;;;;;;;2.97;1.85;;;11.60;99.90;;;;;;5037589;28;20025;-87
2023/01/08 00:43:09;;;;;;;4.20;2.63;;;11.60;99.90;;;;;;5055244;28;20033;-87
2023/01/08 00:45:35;;;;;;;3.60;2.10;;;11.60;99.90;;;;;;5053989;28;20399;-87
2023/01/08 00:48:01;;;;;;;3.17;2.15;;;11.60;99.90;;;;;;5037248;28;20470;-87
2023/01/08 00:50:27;;;;;;;3.10;2.05;;;11.60;99.90;;;;;;5055272;28;20018;-86
2023/01/08 00:52:52;;;;;;;3.40;1.77;;;11.70;99.90;;;;;;5054268;28;20079;-87
2023/01/08 00:55:18;;;;;;;4.40;1.90;;;11.70;99.90;;;;;;5055053;28;20037;-87
2023/01/08 00:57:44;;;;;;;2.85;1.98;;;11.80;99.90;;;;;;5055038;28;20040;-86
2023/01/08 01:00:13;;;;;;;3.97;1.70;;;11.80;99.90;;;;;;5054998;28;20028;-87
2023/01/08 01:02:40;;;;;;;3.75;1.83;;;11.80;99.90;;;;;;5036480;28;20029;-87
2023/01/08 01:05:06;;;;;;;3.45;1.80;;;11.80;99.90;;;;;;5037106;28;20028;-87
2023/01/08 01:07:33;;;;;;;2.40;1.77;;;11.90;99.90;;;;;;5036625;28;20078;-87
2023/01/08 01:09:59;;;;;;;2.75;1.67;;;11.90;99.90;;;;;;5054875;28;20147;-87
2023/01/08 01:12:25;;;;;;;3.45;2.00;;;11.90;99.90;;;;;;5054807;28;20486;-86
2023/01/08 01:14:51;;;;;;;4.05;1.80;;;11.90;99.90;;;;;;5054695;28;20111;-87
2023/01/08 01:17:16;;;;;;;2.65;1.50;;;12.00;99.90;;;;;;5036906;28;20029;-87
2023/01/08 01:19:42;;;;;;;2.00;1.77;;;12.00;99.90;;;;;;5054684;28;20032;-87
2023/01/08 01:22:08;;;;;;;2.50;1.75;;;12.00;99.90;;;;;;5054205;28;20021;-87
2023/01/08 01:24:33;;;;;;;1.35;1.20;;;12.00;99.90;;;;;;5036597;28;20021;-87
2023/01/08 01:26:59;;;;;;;3.47;1.67;;;12.10;99.90;;;;;;5054338;28;20044;-87
2023/01/08 01:29:25;;;;;;;2.05;1.48;;;12.20;99.90;;;;;;5054385;28;20025;-87
2023/01/08 01:31:51;;;;;;;3.42;1.60;;;12.20;99.90;;;;;;5054402;28;20036;-87
2023/01/08 01:34:16;;;;;;;2.83;1.55;;;12.10;99.90;;;;;;5036046;28;20041;-87
2023/01/08 01:36:42;;;;;;;2.47;1.60;;;12.00;99.90;;;;;;5036487;28;20532;-87
2023/01/08 01:39:08;;;;;;;2.90;1.70;;;12.00;99.90;;;;;;5054219;28;20535;-86
2023/01/08 01:41:39;;;;;;;4.47;1.95;;;12.10;99.90;;;;;;5054227;28;20071;-87
2023/01/08 01:44:40;;;;;;;3.00;1.83;;;12.10;99.90;;;;;;5054111;28;20482;-86
2023/01/08 01:47:47;;;;;;;3.85;1.75;;;12.00;99.90;;;;;;5054116;28;20036;-87
2023/01/08 01:50:16;;;;;;;3.08;1.52;;;12.00;99.90;;;;;;4995473;28;20037;-87
2023/01/08 01:52:57;;;;;;;3.25;1.70;;;12.00;99.90;;;;;;5011727;28;20161;-86
2023/01/08 01:55:29;;;;;;;5.03;2.10;;;12.00;99.90;;;;;;5012282;28;20054;-86
2023/01/08 01:58:10;;;;;;;2.80;1.92;;;12.00;99.90;;;;;;4995745;28;20022;-87
2023/01/08 02:00:36;;;;;;;4.15;1.80;;;12.00;99.90;;;;;;5012020;28;20108;-86
2023/01/08 02:03:04;;;;;;;4.50;1.77;;;12.00;99.90;;;;;;5011808;28;20476;-87
2023/01/08 02:05:57;;;;;;;4.03;1.92;;;12.10;99.90;;;;;;5011696;28;20037;-87
2023/01/08 02:08:36;;;;;;;1.70;1.60;;;12.10;99.90;;;;;;5001517;28;20088;-87
2023/01/08 02:11:19;;;;;;;3.45;1.73;;;12.10;99.90;;;;;;5011853;28;20076;-87
2023/01/08 02:13:52;;;;;;;5.38;1.92;;;12.10;99.90;;;;;;4994559;28;20054;-87
2023/01/08 02:16:39;;;;;;;1.85;1.38;;;12.00;99.90;;;;;;5011609;28;20495;-87
2023/01/08 02:19:21;;;;;;;3.97;1.90;;;12.10;99.90;;;;;;5011408;28;20589;-86
2023/01/08 02:21:47;;;;;;;3.42;1.67;;;12.00;99.90;;;;;;5046662;28;20116;-86
2023/01/08 02:24:33;;;;;;;3.22;1.70;;;12.00;99.90;;;;;;5035547;28;20132;-87
2023/01/08 02:27:03;;;;;;;2.53;1.60;;;12.10;99.90;;;;;;5035553;28;20028;-86
2023/01/08 02:29:31;;;;;;;3.97;1.70;;;12.10;99.90;;;;;;5053187;28;20390;-87
2023/01/08 02:31:57;;;;;;;5.82;1.27;;;12.20;99.90;;;;;;5035468;28;20060;-87
2023/01/08 02:34:22;;;;;;;3.10;1.90;;;12.30;99.90;;;;;;5052750;28;20162;-87
2023/01/08 02:36:54;;;;;;;3.05;1.05;;;12.20;99.90;;;;;;5053327;28;20032;-87
2023/01/08 02:39:34;;;;;;;3.80;1.80;;;12.20;99.90;;;;;;5053093;28;20078;-86
2023/01/08 02:42:28;;;;;;;2.78;1.60;;;12.30;99.90;;;;;;5053073;28;20544;-87
2023/01/08 02:45:15;;;;;;;2.78;1.60;;;12.30;99.90;;;;;;5053038;28;20040;-87
2023/01/08 02:47:48;;;;;;;4.00;1.55;;;12.40;99.90;;;;;;5052610;28;20078;-86
2023/01/08 02:50:53;;;;;;;3.10;1.70;;;12.30;99.90;;;;;;5052961;28;20074;-87
2023/01/08 02:53:29;;;;;;;5.63;1.90;;;12.30;99.90;;;;;;5044803;28;20532;-87
2023/01/08 02:55:59;;;;;;;3.28;1.50;;;12.20;99.90;;;;;;5052703;28;20060;-87
2023/01/08 02:58:28;;;;;;;5.35;1.83;;;12.20;99.90;;;;;;5052797;28;20036;-86
2023/01/08 03:00:54;;;;;;;4.10;1.70;;;12.30;99.90;;;;;;5052769;28;20047;-87
2023/01/08 03:03:26;;;;;;;7.78;2.20;;;12.20;99.90;;;;;;5052379;28;20032;-87
2023/01/08 03:06:00;;;;;;;2.03;1.50;;;12.30;99.90;;;;;;5052635;28;20088;-87
2023/01/08 03:08:27;;;;;;;4.07;1.55;;;12.20;99.90;;;;;;5052847;28;20040;-87
2023/01/08 03:11:02;;;;;;;4.22;1.50;;;12.30;99.90;;;;;;5052702;28;20032;-87
2023/01/08 03:13:59;;;;;;;3.70;1.73;;;12.20;99.90;;;;;;5052485;28;20072;-86
2023/01/08 03:16:59;;;;;;;3.50;1.77;;;12.30;99.90;;;;;;5049165;28;20037;-87
2023/01/08 03:19:35;;;;;;;2.47;1.88;;;12.30;99.90;;;;;;5043366;28;20041;-86
2023/01/08 03:22:02;;;;;;;4.55;1.50;;;12.30;99.90;;;;;;5052424;28;20474;-87
2023/01/08 03:24:33;;;;;;;3.85;2.10;;;12.30;99.90;;;;;;5052412;28;20037;-86
2023/01/08 03:27:03;;;;;;;4.32;1.75;;;12.30;99.90;;;;;;5052400;28;20025;-87
2023/01/08 03:29:30;;;;;;;4.03;1.50;;;12.30;99.90;;;;;;5034623;28;20025;-87
2023/01/08 03:32:01;;;;;;;2.30;1.52;;;12.30;99.90;;;;;;5052187;28;20025;-87
2023/01/08 03:34:30;;;;;;;4.38;1.92;;;12.30;99.90;;;;;;5052318;28;20037;-87
2023/01/08 03:36:59;;;;;;;3.05;1.80;;;12.30;99.90;;;;;;5034765;28;20029;-87
2023/01/08 03:39:30;;;;;;;2.80;1.70;;;12.40;99.90;;;;;;5052380;28;20079;-87
2023/01/08 03:42:01;;;;;;;3.70;2.15;;;12.30;99.90;;;;;;5052412;28;20029;-86
2023/01/08 03:44:27;;;;;;;4.68;2.05;;;12.20;99.90;;;;;;5034542;28;20028;-86
2023/01/08 03:46:55;;;;;;;2.30;1.80;;;12.20;99.90;;;;;;5051873;28;20033;-86
2023/01/08 03:49:23;;;;;;;6.68;2.30;;;12.20;99.90;;;;;;5051087;28;20031;-87
2023/01/08 03:51:48;;;;;;;3.65;2.22;;;12.30;99.90;;;;;;5051970;28;20041;-87
2023/01/08 03:54:17;;;;;;;5.40;2.25;;;12.20;99.90;;;;;;5051982;28;20041;-86
2023/01/08 03:56:43;;;;;;;3.60;1.92;;;12.20;99.90;;;;;;5034335;28;20107;-87
2023/01/08 03:59:11;;;;;;;4.00;1.98;;;12.20;99.90;;;;;;5052192;28;20546;-87
2023/01/08 04:01:37;;;;;;;3.65;2.20;;;12.20;99.90;;;;;;5051797;28;20501;-86
2023/01/08 04:04:02;;;;;;;4.72;2.67;;;12.30;99.90;;;;;;5052110;28;20025;-87
2023/01/08 04:06:28;;;;;;;2.75;1.85;;;12.30;99.90;;;;;;5052165;28;20021;-86
2023/01/08 04:08:54;;;;;;;3.53;2.38;;;12.30;99.90;;;;;;5052145;28;20029;-87
2023/01/08 04:11:19;;;;;;;2.80;1.90;;;12.30;99.90;;;;;;5052052;28;20123;-87
2023/01/08 04:13:45;;;;;;;4.10;1.92;;;12.30;99.90;;;;;;5051706;28;20033;-87
2023/01/08 04:16:10;;;;;;;3.25;2.22;;;12.30;99.90;;;;;;5051995;28;20032;-87
2023/01/08 04:18:36;;;;;;;4.10;2.08;;;12.40;99.90;;;;;;5052064;28;20037;-86
2023/01/08 04:21:02;;;;;;;4.43;2.00;;;12.30;99.90;;;;;;5051967;28;20462;-87
2023/01/08 04:23:27;;;;;;;5.60;2.38;;;12.30;99.90;;;;;;5051812;28;20516;-87
2023/01/08 04:25:53;;;;;;;5.75;2.00;;;12.20;99.90;;;;;;5033849;28;20481;-87
2023/01/08 04:28:19;;;;;;;4.70;2.00;;;12.30;99.90;;;;;;5051498;28;20067;-87
2023/01/08 04:30:44;;;;;;;3.08;2.00;;;12.30;99.90;;;;;;5051743;28;20033;-87
2023/01/08 04:33:10;;;;;;;3.30;1.98;;;12.30;99.90;;;;;;5033931;28;20037;-86
2023/01/08 04:35:36;;;;;;;4.53;2.10;;;12.30;99.90;;;;;;5052120;28;20044;-86
2023/01/08 04:38:02;;;;;;;3.67;2.03;;;12.20;99.90;;;;;;5055427;28;20044;-87
2023/01/08 04:40:27;;;;;;;4.95;2.13;;;12.20;99.90;;;;;;5055462;28;20033;-87
2023/01/08 04:42:53;;;;;;;5.40;2.30;;;12.20;99.90;;;;;;5054908;28;20044;-87
2023/01/08 04:45:19;;;;;;;5.97;2.38;;;12.20;99.90;;;;;;5055432;28;20025;-87
2023/01/08 04:47:44;;;;;;;8.43;2.35;;;12.20;99.90;;;;;;5054070;28;20099;-86
2023/01/08 04:50:10;;;;;;;5.85;2.30;;;12.20;99.90;;;;;;5055190;28;20062;-86
2023/01/08 04:52:36;;;;;;;4.60;2.42;;;12.20;99.90;;;;;;5055044;28;20045;-86
2023/01/08 04:55:02;;;;;;;3.88;1.90;;;12.30;99.90;;;;;;5054821;28;20040;-87
2023/01/08 04:57:27;;;;;;;3.83;2.28;;;12.30;99.90;;;;;;5053421;28;20039;-86
2023/01/08 04:59:53;;;;;;;5.95;2.15;;;12.30;99.90;;;;;;5037085;28;20082;-86
2023/01/08 05:02:19;;;;;;;4.22;2.10;;;12.30;99.90;;;;;;5037024;28;20025;-87
2023/01/08 05:04:44;;;;;;;4.40;1.83;;;12.20;99.90;;;;;;5055046;28;20057;-87
2023/01/08 05:07:10;;;;;;;3.60;2.25;;;12.30;99.90;;;;;;5055047;28;20477;-86
2023/01/08 05:09:36;;;;;;;5.50;2.40;;;12.30;99.90;;;;;;5054835;28;20018;-87
2023/01/08 05:12:01;;;;;;;5.25;2.60;;;12.30;99.90;;;;;;5054466;28;20029;-87
2023/01/08 05:14:27;;;;;;;4.10;2.20;;;12.30;99.90;;;;;;5054690;28;20037;-87
2023/01/08 05:16:52;;;;;;;4.18;2.47;;;12.30;99.90;;;;;;5054675;28;20096;-86
2023/01/08 05:19:18;;;;;;;6.20;2.40;;;12.30;99.90;;;;;;5054899;28;20040;-86
2023/01/08 05:21:44;;;;;;;6.47;2.75;;;12.30;99.90;;;;;;5054702;28;20064;-87
2023/01/08 05:24:09;;;;;;;6.45;2.38;;;12.30;99.90;;;;;;5054659;28;20493;-87
2023/01/08 05:26:35;;;;;;;4.90;2.67;;;12.20;99.90;;;;;;5054315;28;20032;-87
2023/01/08 05:29:01;;;;;;;6.55;2.58;;;12.20;99.90;;;;;;5054150;28;20036;-86
2023/01/08 05:31:26;;;;;;;6.95;2.47;;;12.20;99.90;;;;;;5054429;28;20572;-87
2023/01/08 05:33:52;;;;;;;4.30;2.50;;;12.20;99.90;;;;;;5054243;28;20444;-86
2023/01/08 05:36:17;;;;;;;6.07;2.90;;;12.20;99.90;;;;;;5054335;28;20033;-87
2023/01/08 05:38:43;;;;;;;6.72;2.67;;;12.20;99.90;;;;;;5054438;28;20052;-87
2023/01/08 05:41:09;;;;;;;4.20;2.45;;;12.20;99.90;;;;;;5035913;28;20058;-86
2023/01/08 05:43:36;;;;;;;5.13;3.00;;;12.10;99.90;;;;;;5054244;28;20036;-87
2023/01/08 05:46:02;;;;;;;3.85;2.50;;;12.10;99.90;;;;;;5036306;28;20025;-86
2023/01/08 05:48:30;;;;;;;5.28;2.50;;;12.20;99.90;;;;;;5053049;28;20055;-87
2023/01/08 05:50:56;;;;;;;6.00;2.60;;;12.20;99.90;;;;;;5054001;28;20386;-87
2023/01/08 05:53:22;;;;;;;6.93;2.70;;;12.20;99.90;;;;;;5048529;28;20100;-87
2023/01/08 05:55:47;;;;;;;6.55;3.30;;;12.20;99.90;;;;;;5016159;28;20025;-87
2023/01/08 05:58:13;;;;;;;4.82;3.00;;;12.10;99.90;;;;;;5034025;28;20475;-87
2023/01/08 06:00:39;;;;;;;7.07;2.80;;;12.20;99.90;;;;;;5033962;28;20026;-87
2023/01/08 06:03:05;;;;;;;7.05;2.67;;;12.10;99.90;;;;;;5033962;28;20590;-87
2023/01/08 06:05:32;;;;;;;8.82;2.58;;;12.10;99.90;;;;;;5015980;28;20557;-86
2023/01/08 06:07:58;;;;;;;7.43;3.22;;;12.10;99.90;;;;;;5033853;28;20025;-86
2023/01/08 06:10:24;;;;;;;6.38;2.90;;;12.10;99.90;;;;;;5033527;28;20060;-87
2023/01/08 06:12:50;;;;;;;5.00;2.70;;;12.10;99.90;;;;;;5033659;28;20049;-87
2023/01/08 06:15:16;;;;;;;5.53;3.08;;;12.10;99.90;;;;;;5033566;28;20469;-87
2023/01/08 06:17:42;;;;;;;4.20;2.63;;;12.00;99.90;;;;;;5015945;28;20064;-87
2023/01/08 06:20:09;;;;;;;5.72;2.60;;;12.00;99.90;;;;;;5033545;28;20053;-87
2023/01/08 06:22:34;;;;;;;5.60;3.10;;;12.00;99.90;;;;;;5033445;28;20029;-87
2023/01/08 06:25:01;;;;;;;6.63;3.03;;;11.90;99.90;;;;;;5033042;28;20037;-87
2023/01/08 06:27:27;;;;;;;6.97;3.45;;;11.90;99.90;;;;;;5033340;28;20389;-87
2023/01/08 06:29:52;;;;;;;5.13;2.42;;;11.90;99.90;;;;;;5033451;28;20033;-87
2023/01/08 06:32:18;;;;;;;7.88;2.83;;;11.80;99.90;;;;;;5015590;28;20021;-87
2023/01/08 06:34:43;;;;;;;7.32;3.13;;;11.80;99.90;;;;;;5033206;28;20556;-87
2023/01/08 06:37:09;;;;;;;5.72;2.97;;;11.80;99.90;;;;;;5033177;28;20378;-87
2023/01/08 06:39:34;;;;;;;6.20;3.20;;;11.80;99.90;;;;;;5015216;28;20072;-87
2023/01/08 06:42:00;;;;;;;5.95;3.20;;;11.90;99.90;;;;;;5033134;28;20053;-87
2023/01/08 06:44:26;;;;;;;6.10;2.97;;;11.90;99.90;;;;;;5033322;28;20025;-87
2023/01/08 06:46:52;;;;;;;5.22;3.28;;;11.90;99.90;;;;;;5015390;28;20031;-87
2023/01/08 06:49:18;;;;;;;6.40;2.95;;;11.80;99.90;;;;;;5033217;28;20033;-87
2023/01/08 06:51:44;;;;;;;7.65;3.67;;;11.80;99.90;;;;;;5032876;28;20041;-87
2023/01/08 06:54:09;;;;;;;8.77;3.75;;;11.70;99.90;;;;;;5019884;28;20401;-87
2023/01/08 06:56:35;;;;;;;8.43;3.60;;;11.60;99.90;;;;;;5052903;28;20366;-87
2023/01/08 06:59:01;;;;;;;9.02;4.22;;;11.60;99.90;;;;;;5034696;28;20032;-87
2023/01/08 07:01:26;;;;;;;6.93;3.90;;;11.60;99.90;;;;;;5052683;28;20056;-87
2023/01/08 07:03:52;;;;;;;6.50;3.40;;;11.50;99.90;;;;;;5052698;28;20032;-87
2023/01/08 07:06:20;;;;;;;4.80;3.00;;;11.40;99.90;;;;;;5052736;28;20036;-86
2023/01/08 07:08:46;;;;;;;7.60;3.20;;;11.30;99.90;;;;;;5052399;28;20021;-87
2023/01/08 07:11:12;;;;;;;6.82;3.92;;;11.40;99.90;;;;;;5034671;28;20029;-87
2023/01/08 07:13:37;;;;;;;8.10;3.53;;;11.40;99.90;;;;;;5052577;28;20163;-87
2023/01/08 07:16:11;;;;;;;7.40;3.08;;;11.40;99.90;;;;;;5034846;28;20021;-87
2023/01/08 07:18:37;;;;;;;12.98;4.60;;;11.40;99.90;;;;;;5052667;28;20020;-87
2023/01/08 07:21:04;;;;;;;7.65;3.78;;;11.40;99.90;;;;;;5052497;28;20072;-87
2023/01/08 07:23:30;;;;;;;7.90;3.92;;;11.50;99.90;;;;;;5052264;28;20104;-87
2023/01/08 07:26:01;;;;;;;5.50;3.30;;;11.50;99.90;;;;;;5034771;28;20389;-87
2023/01/08 07:28:27;;;;;;;6.57;3.75;;;11.50;99.90;;;;;;5052432;28;20103;-87
2023/01/08 07:30:54;;;;;;;8.63;3.50;;;11.50;99.90;;;;;;5052458;28;20485;-87
2023/01/08 07:33:20;;;;;;;4.80;3.67;;;11.50;99.90;;;;;;5052264;28;20033;-87
2023/01/08 07:35:52;;;;;;;5.63;3.35;;;11.50;99.90;;;;;;5052558;28;20414;-87
2023/01/08 07:38:18;;;;;;;4.97;3.22;;;11.60;99.90;;;;;;5051975;28;20025;-87
2023/01/08 07:40:44;;;;;;;8.73;3.35;;;11.60;99.90;;;;;;5052387;28;20025;-87
2023/01/08 07:43:11;;;;;;;5.75;3.80;;;11.60;99.90;;;;;;5034512;28;20425;-87
2023/01/08 07:45:37;;;;;;;8.45;3.20;;;11.70;99.90;;;;;;5052280;28;20025;-87
2023/01/08 07:48:03;;;;;;;7.78;3.38;;;11.70;99.90;;;;;;5033246;28;20036;-87
2023/01/08 07:50:29;;;;;;;10.02;3.53;;;11.70;99.90;;;;;;5051386;28;20478;-87
2023/01/08 07:52:59;;;;;;;9.75;2.95;;;11.80;99.90;;;;;;5036773;28;20053;-87
2023/01/08 07:55:26;;;;;;;6.55;3.42;;;11.80;99.90;;;;;;5014599;28;20033;-87
2023/01/08 07:57:52;;;;;;;5.82;3.25;;;11.80;99.90;;;;;;5031561;28;20049;-85
2023/01/08 08:00:18;;;;;;;6.18;3.53;;;11.90;99.90;;;;;;5030946;28;20063;-87
2023/01/08 08:02:44;;;;;;;6.65;3.50;;;11.90;99.90;;;;;;5032333;28;20030;-87
2023/01/08 08:05:09;;;;;;;8.48;3.67;;;11.90;99.90;;;;;;5031624;28;20402;-87
2023/01/08 08:07:35;;;;;;;9.10;2.78;;;11.90;99.90;;;;;;5031715;28;20080;-87
2023/01/08 08:10:02;;;;;;;9.85;3.72;;;11.90;99.90;;;;;;5031451;28;20372;-87
2023/01/08 08:12:27;;;;;;;7.80;3.45;;;11.80;99.90;;;;;;5034492;28;20032;-87
2023/01/08 08:14:53;;;;;;;5.15;2.80;;;11.90;99.90;;;;;;5035881;28;20037;-87
2023/01/08 08:17:18;;;;;;;9.85;3.45;;;11.90;99.90;;;;;;5035468;28;20489;-76
2023/01/08 08:19:44;;;;;;;9.05;3.70;;;12.20;99.90;;;;;;5035495;28;20042;-76
2023/01/08 08:22:11;;;;;;;8.98;3.58;;;12.20;99.90;;;;;;5034585;28;20032;-84
2023/01/08 08:24:37;;;;;;;10.13;3.85;;;12.10;99.90;;;;;;5035786;28;20060;-84
2023/01/08 08:27:02;;;;;;;6.15;3.70;;;12.00;99.90;;;;;;5035875;28;20060;-84
2023/01/08 08:29:28;;;;;;;8.23;3.85;;;12.00;99.90;;;;;;5035342;28;20516;-83
2023/01/08 08:31:54;;;;;;;8.07;4.18;;;12.00;99.90;;;;;;5034894;28;20029;-85
2023/01/08 08:34:21;;;;;;;7.22;3.63;;;12.10;99.90;;;;;;5034944;28;20044;-83
2023/01/08 08:36:47;;;;;;;8.82;4.00;;;12.10;99.90;;;;;;5034712;28;20029;-83
2023/01/08 08:39:13;;;;;;;8.77;3.50;;;12.10;99.90;;;;;;5035049;28;20056;-84
2023/01/08 08:41:39;;;;;;;7.10;3.72;;;12.10;99.90;;;;;;5011235;28;20030;-83
2023/01/08 08:44:04;;;;;;;8.55;3.45;;;12.10;99.90;;;;;;5015400;28;20040;-83
2023/01/08 08:46:30;;;;;;;8.80;3.58;;;12.10;99.90;;;;;;5015670;28;20161;-83
2023/01/08 08:48:56;;;;;;;4.13;2.72;;;12.10;99.90;;;;;;5021983;28;20075;-83
2023/01/08 08:51:22;;;;;;;6.75;3.58;;;12.20;99.90;;;;;;5036361;28;20106;-83
2023/01/08 08:53:47;;;;;;;8.77;3.97;;;12.10;99.90;;;;;;5036699;28;20036;-84
2023/01/08 08:56:13;;;;;;;5.80;3.28;;;12.10;99.90;;;;;;5054664;28;20068;-84
2023/01/08 08:58:40;;;;;;;6.13;3.13;;;12.10;99.90;;;;;;5055157;28;20041;-80
2023/01/08 09:01:07;;;;;;;6.25;2.83;;;12.10;99.90;;;;;;5054029;28;20029;-81
2023/01/08 09:03:33;;;;;;;5.70;3.35;;;12.00;99.90;;;;;;5054382;28;20502;-81
2023/01/08 09:05:59;;;;;;;5.78;3.30;;;12.00;99.90;;;;;;5054442;28;20059;-81
2023/01/08 09:08:25;;;;;;;6.97;3.65;;;12.10;99.90;;;;;;5054515;28;20036;-80
2023/01/08 09:10:51;;;;;;;7.13;3.38;;;12.00;99.90;;;;;;5054833;28;20025;-81
2023/01/08 09:13:16;;;;;;;5.13;3.33;;;12.10;99.90;;;;;;5054296;28;20107;-80
2023/01/08 09:15:42;;;;;;;7.88;3.83;;;12.10;99.90;;;;;;5054198;28;20032;-83
2023/01/08 09:18:08;;;;;;;8.80;3.70;;;12.00;99.90;;;;;;5053381;28;20025;-81
2023/01/08 09:20:34;;;;;;;8.80;3.92;;;12.00;99.90;;;;;;5053260;28;20029;-80
2023/01/08 09:23:00;;;;;;;6.00;3.50;;;12.00;99.90;;;;;;5039592;28;20025;-81
2023/01/08 09:25:26;;;;;;;7.13;3.15;;;12.00;99.90;;;;;;5037152;28;20032;-81
2023/01/08 09:28:00;;;;;;;7.70;3.90;;;11.90;99.90;;;;;;5035302;28;20022;-80
2023/01/08 09:30:25;;;;;;;8.32;3.40;;;12.00;99.90;;;;;;5034416;28;20037;-80
2023/01/08 09:32:54;;;;;;;6.88;3.53;;;12.00;99.90;;;;;;5034153;28;20029;-80
2023/01/08 09:35:20;;;;;;;8.85;4.28;;;12.00;99.90;;;;;;5034176;28;20037;-80
2023/01/08 09:37:53;;;;;;;7.75;3.42;;;12.10;99.90;;;;;;5038336;28;20021;-81
2023/01/08 09:40:20;;;;;;;8.13;3.97;;;12.10;99.90;;;;;;5053455;28;20032;-81
2023/01/08 09:42:59;;;;;;;5.93;3.33;;;12.10;99.90;;;;;;5053829;28;20021;-81
2023/01/08 09:45:28;;;;;;;7.75;3.63;;;12.10;99.90;;;;;;5053716;28;20040;-81
2023/01/08 09:47:55;;;;;;;7.88;3.72;;;12.20;99.90;;;;;;5053331;28;20032;-81
2023/01/08 09:50:24;;;;;;;10.00;4.30;;;12.40;99.90;;;;;;5053997;28;20107;-81
2023/01/08 09:52:50;;;;;;;5.72;3.88;;;12.60;99.90;;;;;;5052433;28;20171;-81
2023/01/08 09:55:16;;;;;;;8.52;3.78;;;12.80;99.90;;;;;;5053067;28;20128;-81
2023/01/08 09:57:43;;;;;;;6.15;3.92;;;12.90;99.90;;;;;;5053830;28;20111;-81
2023/01/08 10:00:14;;;;;;;7.18;3.75;;;13.10;99.90;;;;;;5053252;28;20035;-82
2023/01/08 10:02:40;;;;;;;8.50;4.13;;;13.40;99.90;;;;;;5051897;28;20413;-81
2023/01/08 10:05:12;;;;;;;6.32;3.30;;;13.70;99.90;;;;;;5053066;28;20021;-81
2023/01/08 10:07:38;;;;;;;5.93;3.42;;;13.90;99.90;;;;;;5053423;28;20103;-81
2023/01/08 10:10:05;;;;;;;4.97;3.42;;;13.90;99.90;;;;;;5053048;28;20091;-81
2023/01/08 10:12:32;;;;;;;7.63;3.95;;;13.80;99.90;;;;;;5052816;28;20021;-81
2023/01/08 10:15:07;;;;;;;8.77;3.38;;;13.80;99.90;;;;;;5052801;28;20045;-80
2023/01/08 10:17:40;;;;;;;5.07;2.97;;;14.10;99.90;;;;;;5044493;28;20547;-80
2023/01/08 10:20:24;;;;;;;6.95;3.80;;;14.00;99.90;;;;;;5053117;28;20021;-81
2023/01/08 10:22:53;;;;;;;6.43;3.55;;;14.20;99.90;;;;;;5051950;28;20385;-81
2023/01/08 10:25:27;;;;;;;5.25;3.38;;;14.20;99.90;;;;;;5048517;28;20025;-81
2023/01/08 10:27:57;;;;;;;4.80;3.35;;;13.90;99.90;;;;;;5052614;28;20078;-81
2023/01/08 10:30:38;;;;;;;7.90;3.70;;;13.80;99.90;;;;;;5052194;28;20082;-80
2023/01/08 10:33:09;;;;;;;5.78;3.53;;;13.80;99.90;;;;;;5052529;28;20140;-81
2023/01/08 10:35:39;;;;;;;7.05;3.83;;;13.70;99.90;;;;;;5052278;28;20029;-81
2023/01/08 10:38:05;;;;;;;6.65;3.70;;;13.80;99.90;;;;;;5052841;28;20036;-81
2023/01/08 10:40:49;;;;;;;6.43;3.22;;;13.90;99.90;;;;;;5052727;28;20075;-83
2023/01/08 10:43:19;;;;;;;8.07;3.40;;;13.80;99.90;;;;;;5052435;28;20179;-81
2023/01/08 10:46:01;;;;;;;7.70;3.75;;;13.90;99.90;;;;;;5051405;28;20551;-81
2023/01/08 10:48:33;;;;;;;8.50;3.85;;;13.80;99.90;;;;;;5052871;28;20025;-82
2023/01/08 10:51:12;;;;;;;6.80;4.35;;;14.00;99.90;;;;;;5052157;28;20087;-82
2023/01/08 10:53:39;;;;;;;9.65;4.10;;;13.70;99.90;;;;;;5052312;28;20044;-82
2023/01/08 10:56:05;;;;;;;5.82;3.83;;;13.80;99.90;;;;;;5052725;28;20033;-81
2023/01/08 10:58:41;;;;;;;11.13;4.00;;;14.10;99.90;;;;;;5051494;28;20017;-81
2023/01/08 11:01:30;;;;;;;8.07;3.55;;;13.80;99.90;;;;;;5049907;28;20023;-81
2023/01/08 11:04:04;;;;;;;8.32;3.60;;;13.70;99.90;;;;;;5051112;28;20520;-82
2023/01/08 11:06:40;;;;;;;5.88;3.50;;;13.60;99.90;;;;;;5051476;28;20017;-82
2023/01/08 11:09:24;;;;;;;6.25;3.60;;;13.60;99.90;;;;;;5054994;28;20127;-82
2023/01/08 11:11:50;;;;;;;6.45;3.70;;;13.50;99.90;;;;;;5052873;28;20025;-87
2023/01/08 11:14:21;;;;;;;7.50;3.63;;;13.50;99.90;;;;;;5051285;28;20031;-89
2023/01/08 11:16:47;;;;;;;9.45;3.75;;;13.50;99.90;;;;;;5052211;28;20473;-87
2023/01/08 11:19:31;;;;;;;8.85;3.90;;;13.60;99.90;;;;;;5050883;28;20500;-86
2023/01/08 11:21:58;;;;;;;6.28;3.65;;;13.40;99.90;;;;;;5051620;28;20047;-86
2023/01/08 11:24:34;;;;;;;12.07;3.60;;;13.30;99.90;;;;;;5051992;28;20044;-85
2023/01/08 11:27:14;;;;;;;8.55;3.95;;;13.40;99.90;;;;;;5051515;28;20104;-87
2023/01/08 11:29:48;;;;;;;6.40;3.80;;;13.50;99.90;;;;;;5051235;28;20404;-81
2023/01/08 11:32:14;;;;;;;4.80;3.47;;;13.80;99.90;;;;;;5051651;28;20021;-89
2023/01/08 11:34:45;;;;;;;6.60;4.07;;;13.60;99.90;;;;;;5050361;28;20039;-85
2023/01/08 11:37:24;;;;;;;5.53;3.35;;;13.80;99.90;;;;;;5051725;28;20064;-85
2023/01/08 11:39:52;;;;;;;7.10;3.83;;;13.60;99.90;;;;;;5051078;28;20037;-85
2023/01/08 11:42:38;;;;;;;5.78;3.50;;;13.60;99.90;;;;;;5051661;28;20036;-85
2023/01/08 11:45:23;;;;;;;8.23;3.88;;;13.50;99.90;;;;;;4990879;28;20037;-85
2023/01/08 11:48:07;;;;;;;7.93;3.85;;;13.30;99.90;;;;;;4992520;28;20500;-87
2023/01/08 11:50:53;;;;;;;5.93;3.20;;;13.30;99.90;;;;;;4993425;28;20534;-80
2023/01/08 11:53:42;;;;;;;7.82;3.38;;;13.10;99.90;;;;;;4994368;28;20054;-80
2023/01/08 11:56:27;;;;;;;7.07;3.92;;;13.00;99.90;;;;;;4992956;28;20050;-80
2023/01/08 11:59:11;;;;;;;7.72;3.38;;;12.90;99.90;;;;;;4993288;28;20022;-82
2023/01/08 12:01:40;;;;;;;9.35;3.45;;;13.00;99.90;;;;;;4993632;28;20120;-82
2023/01/08 12:04:14;;;;;;;8.60;3.88;;;12.90;99.90;;;;;;4993316;28;20038;-86
2023/01/08 12:06:51;;;;;;;7.70;4.00;;;13.00;99.90;;;;;;4992890;28;20606;-82
2023/01/08 12:09:45;;;;;;;7.38;3.40;;;13.30;99.90;;;;;;4992663;28;20157;-82
2023/01/08 12:12:35;;;;;;;6.35;3.92;;;13.60;99.90;;;;;;4993086;28;20022;-85
2023/01/08 12:15:25;;;;;;;6.68;3.53;;;13.80;99.90;;;;;;4994310;28;20121;-87
2023/01/08 12:18:26;;;;;;;7.50;4.32;;;13.80;99.90;;;;;;4992638;28;20036;-85
2023/01/08 12:21:13;;;;;;;5.28;3.65;;;13.90;99.90;;;;;;4991249;28;20414;-85
2023/01/08 12:24:00;;;;;;;6.90;3.90;;;13.60;99.90;;;;;;5053081;28;20413;-86
2023/01/08 12:26:45;;;;;;;7.75;4.15;;;13.50;99.90;;;;;;5047963;28;20021;-84
2023/01/08 12:29:37;;;;;;;8.27;3.70;;;13.50;99.90;;;;;;5040140;28;20137;-84
2023/01/08 12:32:26;;;;;;;5.20;3.13;;;13.50;99.90;;;;;;5052890;28;20091;-84
2023/01/08 12:35:00;;;;;;;8.05;4.53;;;13.60;99.90;;;;;;5054947;28;20061;-84
2023/01/08 12:37:29;;;;;;;5.35;3.20;;;13.70;99.90;;;;;;5053037;28;20447;-83
2023/01/08 12:40:05;;;;;;;5.93;3.00;;;13.40;99.90;;;;;;5055154;28;20453;-84
2023/01/08 12:42:36;;;;;;;6.03;3.17;;;13.40;99.90;;;;;;5054519;28;20063;-84
2023/01/08 12:45:05;;;;;;;4.88;3.00;;;13.50;99.90;;;;;;5054622;28;20526;-84
2023/01/08 12:47:36;;;;;;;6.25;3.78;;;13.80;99.90;;;;;;5054219;28;20021;-84
2023/01/08 12:50:20;;;;;;;5.47;3.10;;;14.20;99.90;;;;;;5054708;28;20025;-86
2023/01/08 12:52:59;;;;;;;4.28;2.85;;;14.20;99.90;;;;;;5036085;28;20073;-84
2023/01/08 12:55:55;;;;;;;6.95;3.40;;;14.00;99.90;;;;;;5053603;28;20071;-84
2023/01/08 12:58:45;;;;;;;5.25;3.10;;;14.00;99.90;;;;;;5054010;28;20032;-84
2023/01/08 13:01:37;;;;;;;4.93;2.80;;;13.90;99.90;;;;;;5054286;28;20106;-84